sensor_id;sensor_type;location;lat;lon;timestamp;P1;durP1;ratioP1;P2;durP2;ratioP2
20639;SDS011;10479;53.524;9.846;2023-05-02T00:00:27;36.50;;;16.40;;
20639;SDS011;10479;53.524;9.846;2023-05-02T00:02:53;36.40;;;17.10;;
20639;SDS011;10479;53.524;9.846;2023-05-02T00:05:19;36.95;;;18.58;;
20639;SDS011;10479;53.524;9.846;2023-05-02T00:07:44;43.80;;;20.10;;
20639;SDS011;10479;53.524;9.846;2023-05-02T00:10:10;41.15;;;19.02;;
20639;SDS011;10479;53.524;9.846;2023-05-02T00:12:35;40.70;;;19.38;;
20639;SDS011;10479;53.524;9.846;2023-05-02T00:15:02;40.45;;;18.85;;
20639;SDS011;10479;53.524;9.846;2023-05-02T00:17:27;38.67;;;19.73;;
20639;SDS011;10479;53.524;9.846;2023-05-02T00:19:53;40.40;;;18.23;;
20639;SDS011;10479;53.524;9.846;2023-05-02T00:22:18;35.28;;;17.25;;
20639;SDS011;10479;53.524;9.846;2023-05-02T00:24:44;37.67;;;18.90;;
20639;SDS011;10479;53.524;9.846;2023-05-02T00:27:09;37.10;;;17.50;;
20639;SDS011;10479;53.524;9.846;2023-05-02T00:29:35;40.83;;;18.00;;
20639;SDS011;10479;53.524;9.846;2023-05-02T00:32:00;40.65;;;17.73;;
20639;SDS011;10479;53.524;9.846;2023-05-02T00:34:29;36.45;;;18.30;;
20639;SDS011;10479;53.524;9.846;2023-05-02T00:36:55;40.55;;;18.42;;
20639;SDS011;10479;53.524;9.846;2023-05-02T00:39:21;37.10;;;18.48;;
20639;SDS011;10479;53.524;9.846;2023-05-02T00:41:46;40.03;;;18.20;;
20639;SDS011;10479;53.524;9.846;2023-05-02T00:44:12;41.45;;;19.42;;
20639;SDS011;10479;53.524;9.846;2023-05-02T00:46:37;41.33;;;19.58;;
20639;SDS011;10479;53.524;9.846;2023-05-02T00:49:03;44.03;;;21.00;;
20639;SDS011;10479;53.524;9.846;2023-05-02T00:51:28;43.88;;;21.30;;
20639;SDS011;10479;53.524;9.846;2023-05-02T00:53:55;45.63;;;21.75;;
20639;SDS011;10479;53.524;9.846;2023-05-02T00:56:21;44.45;;;20.73;;
20639;SDS011;10479;53.524;9.846;2023-05-02T00:58:47;44.65;;;22.20;;
20639;SDS011;10479;53.524;9.846;2023-05-02T01:12:41;49.03;;;23.05;;
20639;SDS011;10479;53.524;9.846;2023-05-02T01:15:20;58.80;;;25.70;;
20639;SDS011;10479;53.524;9.846;2023-05-02T01:17:47;59.00;;;25.77;;
20639;SDS011;10479;53.524;9.846;2023-05-02T01:20:16;48.05;;;21.00;;
20639;SDS011;10479;53.524;9.846;2023-05-02T01:22:44;54.55;;;19.92;;
20639;SDS011;10479;53.524;9.846;2023-05-02T01:30:30;44.55;;;17.20;;
20639;SDS011;10479;53.524;9.846;2023-05-02T01:32:57;42.78;;;16.98;;
20639;SDS011;10479;53.524;9.846;2023-05-02T01:35:23;49.30;;;18.73;;
20639;SDS011;10479;53.524;9.846;2023-05-02T01:37:50;47.13;;;18.40;;
20639;SDS011;10479;53.524;9.846;2023-05-02T01:40:18;35.85;;;14.07;;
20639;SDS011;10479;53.524;9.846;2023-05-02T01:42:45;37.90;;;13.55;;
20639;SDS011;10479;53.524;9.846;2023-05-02T01:45:15;31.35;;;12.45;;
20639;SDS011;10479;53.524;9.846;2023-05-02T01:47:41;34.97;;;12.65;;
20639;SDS011;10479;53.524;9.846;2023-05-02T01:50:07;33.22;;;12.13;;
20639;SDS011;10479;53.524;9.846;2023-05-02T01:52:36;37.03;;;12.85;;
20639;SDS011;10479;53.524;9.846;2023-05-02T01:55:02;36.97;;;12.45;;
20639;SDS011;10479;53.524;9.846;2023-05-02T01:57:30;30.52;;;11.70;;
20639;SDS011;10479;53.524;9.846;2023-05-02T01:59:56;41.72;;;14.32;;
20639;SDS011;10479;53.524;9.846;2023-05-02T02:02:25;42.90;;;13.05;;
20639;SDS011;10479;53.524;9.846;2023-05-02T02:04:52;35.50;;;12.55;;
20639;SDS011;10479;53.524;9.846;2023-05-02T02:07:21;35.08;;;11.98;;
20639;SDS011;10479;53.524;9.846;2023-05-02T02:09:47;33.60;;;12.80;;
20639;SDS011;10479;53.524;9.846;2023-05-02T02:12:18;35.25;;;13.10;;
20639;SDS011;10479;53.524;9.846;2023-05-02T02:14:56;32.33;;;12.95;;
20639;SDS011;10479;53.524;9.846;2023-05-02T02:17:25;28.85;;;11.43;;
20639;SDS011;10479;53.524;9.846;2023-05-02T02:19:53;21.85;;;9.70;;
20639;SDS011;10479;53.524;9.846;2023-05-02T02:22:20;21.73;;;9.23;;
20639;SDS011;10479;53.524;9.846;2023-05-02T02:24:47;14.73;;;7.50;;
20639;SDS011;10479;53.524;9.846;2023-05-02T02:27:12;16.55;;;7.93;;
20639;SDS011;10479;53.524;9.846;2023-05-02T02:29:38;15.02;;;6.38;;
20639;SDS011;10479;53.524;9.846;2023-05-02T02:32:04;11.70;;;4.45;;
20639;SDS011;10479;53.524;9.846;2023-05-02T02:34:29;9.95;;;3.85;;
20639;SDS011;10479;53.524;9.846;2023-05-02T02:37:13;12.63;;;5.32;;
20639;SDS011;10479;53.524;9.846;2023-05-02T02:39:53;19.13;;;6.60;;
20639;SDS011;10479;53.524;9.846;2023-05-02T02:42:26;19.38;;;10.45;;
20639;SDS011;10479;53.524;9.846;2023-05-02T02:48:17;29.40;;;12.48;;
20639;SDS011;10479;53.524;9.846;2023-05-02T02:53:25;33.22;;;10.82;;
20639;SDS011;10479;53.524;9.846;2023-05-02T02:56:05;24.83;;;9.23;;
20639;SDS011;10479;53.524;9.846;2023-05-02T02:58:42;31.20;;;8.50;;
20639;SDS011;10479;53.524;9.846;2023-05-02T03:01:16;30.25;;;8.18;;
20639;SDS011;10479;53.524;9.846;2023-05-02T03:03:44;30.63;;;8.65;;
20639;SDS011;10479;53.524;9.846;2023-05-02T03:06:09;28.95;;;8.43;;
20639;SDS011;10479;53.524;9.846;2023-05-02T03:08:39;35.00;;;8.10;;
20639;SDS011;10479;53.524;9.846;2023-05-02T03:11:08;34.78;;;9.38;;
20639;SDS011;10479;53.524;9.846;2023-05-02T03:13:34;32.40;;;9.05;;
20639;SDS011;10479;53.524;9.846;2023-05-02T03:18:40;28.38;;;7.00;;
20639;SDS011;10479;53.524;9.846;2023-05-02T03:21:06;28.25;;;6.72;;
20639;SDS011;10479;53.524;9.846;2023-05-02T03:23:31;20.83;;;6.88;;
20639;SDS011;10479;53.524;9.846;2023-05-02T03:25:56;28.88;;;5.55;;
20639;SDS011;10479;53.524;9.846;2023-05-02T03:28:22;24.23;;;5.05;;
20639;SDS011;10479;53.524;9.846;2023-05-02T03:30:47;31.17;;;6.40;;
20639;SDS011;10479;53.524;9.846;2023-05-02T03:33:13;28.88;;;7.03;;
20639;SDS011;10479;53.524;9.846;2023-05-02T03:35:38;26.75;;;6.20;;
20639;SDS011;10479;53.524;9.846;2023-05-02T03:38:03;25.42;;;5.43;;
20639;SDS011;10479;53.524;9.846;2023-05-02T03:40:29;33.15;;;5.40;;
20639;SDS011;10479;53.524;9.846;2023-05-02T03:42:54;34.70;;;6.65;;
20639;SDS011;10479;53.524;9.846;2023-05-02T03:45:20;22.67;;;4.78;;
20639;SDS011;10479;53.524;9.846;2023-05-02T03:47:45;29.20;;;4.93;;
20639;SDS011;10479;53.524;9.846;2023-05-02T03:50:11;21.63;;;4.03;;
20639;SDS011;10479;53.524;9.846;2023-05-02T03:52:36;24.70;;;4.72;;
20639;SDS011;10479;53.524;9.846;2023-05-02T03:55:02;28.67;;;5.72;;
20639;SDS011;10479;53.524;9.846;2023-05-02T03:57:28;21.13;;;4.65;;
20639;SDS011;10479;53.524;9.846;2023-05-02T03:59:54;21.80;;;4.78;;
20639;SDS011;10479;53.524;9.846;2023-05-02T04:02:20;28.20;;;4.45;;
20639;SDS011;10479;53.524;9.846;2023-05-02T04:04:45;21.88;;;4.28;;
20639;SDS011;10479;53.524;9.846;2023-05-02T04:07:11;34.50;;;4.97;;
20639;SDS011;10479;53.524;9.846;2023-05-02T04:09:42;19.55;;;4.07;;
20639;SDS011;10479;53.524;9.846;2023-05-02T04:12:08;20.20;;;4.47;;
20639;SDS011;10479;53.524;9.846;2023-05-02T04:14:33;22.88;;;4.95;;
20639;SDS011;10479;53.524;9.846;2023-05-02T04:16:58;26.50;;;5.28;;
20639;SDS011;10479;53.524;9.846;2023-05-02T04:19:24;23.85;;;4.25;;
20639;SDS011;10479;53.524;9.846;2023-05-02T04:21:50;32.13;;;5.72;;
20639;SDS011;10479;53.524;9.846;2023-05-02T04:24:15;29.20;;;4.40;;
20639;SDS011;10479;53.524;9.846;2023-05-02T04:26:41;28.02;;;4.82;;
20639;SDS011;10479;53.524;9.846;2023-05-02T04:29:06;23.17;;;3.83;;
20639;SDS011;10479;53.524;9.846;2023-05-02T04:31:32;26.48;;;4.70;;
20639;SDS011;10479;53.524;9.846;2023-05-02T04:33:57;22.17;;;4.05;;
20639;SDS011;10479;53.524;9.846;2023-05-02T04:36:23;31.48;;;5.13;;
20639;SDS011;10479;53.524;9.846;2023-05-02T04:38:50;19.73;;;4.05;;
20639;SDS011;10479;53.524;9.846;2023-05-02T04:41:15;25.10;;;3.35;;
20639;SDS011;10479;53.524;9.846;2023-05-02T04:43:41;24.17;;;4.57;;
20639;SDS011;10479;53.524;9.846;2023-05-02T04:46:07;24.75;;;3.72;;
20639;SDS011;10479;53.524;9.846;2023-05-02T04:48:32;25.95;;;3.97;;
20639;SDS011;10479;53.524;9.846;2023-05-02T04:50:58;20.85;;;3.92;;
20639;SDS011;10479;53.524;9.846;2023-05-02T04:53:23;19.52;;;4.03;;
20639;SDS011;10479;53.524;9.846;2023-05-02T04:55:49;15.52;;;3.50;;
20639;SDS011;10479;53.524;9.846;2023-05-02T04:58:14;20.92;;;4.18;;
20639;SDS011;10479;53.524;9.846;2023-05-02T05:00:40;22.33;;;4.35;;
20639;SDS011;10479;53.524;9.846;2023-05-02T05:03:05;24.33;;;4.35;;
20639;SDS011;10479;53.524;9.846;2023-05-02T05:05:31;27.63;;;4.05;;
20639;SDS011;10479;53.524;9.846;2023-05-02T05:07:57;23.27;;;5.30;;
20639;SDS011;10479;53.524;9.846;2023-05-02T05:10:22;24.95;;;4.38;;
20639;SDS011;10479;53.524;9.846;2023-05-02T05:12:48;23.95;;;4.18;;
20639;SDS011;10479;53.524;9.846;2023-05-02T05:15:13;18.40;;;3.85;;
20639;SDS011;10479;53.524;9.846;2023-05-02T05:17:39;22.45;;;3.97;;
20639;SDS011;10479;53.524;9.846;2023-05-02T05:20:06;28.55;;;4.53;;
20639;SDS011;10479;53.524;9.846;2023-05-02T05:22:39;21.38;;;4.38;;
20639;SDS011;10479;53.524;9.846;2023-05-02T05:25:06;25.60;;;4.27;;
20639;SDS011;10479;53.524;9.846;2023-05-02T05:27:35;19.73;;;3.78;;
20639;SDS011;10479;53.524;9.846;2023-05-02T05:30:01;16.88;;;3.95;;
20639;SDS011;10479;53.524;9.846;2023-05-02T05:32:28;28.15;;;4.38;;
20639;SDS011;10479;53.524;9.846;2023-05-02T05:34:53;22.17;;;3.55;;
20639;SDS011;10479;53.524;9.846;2023-05-02T05:37:19;19.90;;;3.00;;
20639;SDS011;10479;53.524;9.846;2023-05-02T05:39:45;18.08;;;3.13;;
20639;SDS011;10479;53.524;9.846;2023-05-02T05:42:11;15.98;;;3.08;;
20639;SDS011;10479;53.524;9.846;2023-05-02T05:44:37;12.90;;;2.88;;
20639;SDS011;10479;53.524;9.846;2023-05-02T05:47:03;16.52;;;3.92;;
20639;SDS011;10479;53.524;9.846;2023-05-02T05:49:28;17.45;;;4.22;;
20639;SDS011;10479;53.524;9.846;2023-05-02T05:51:54;21.35;;;3.85;;
20639;SDS011;10479;53.524;9.846;2023-05-02T05:54:19;14.07;;;3.30;;
20639;SDS011;10479;53.524;9.846;2023-05-02T05:56:45;21.05;;;3.92;;
20639;SDS011;10479;53.524;9.846;2023-05-02T05:59:11;19.20;;;3.70;;
20639;SDS011;10479;53.524;9.846;2023-05-02T06:01:36;18.58;;;3.65;;
20639;SDS011;10479;53.524;9.846;2023-05-02T06:04:02;24.10;;;4.20;;
20639;SDS011;10479;53.524;9.846;2023-05-02T06:06:29;19.23;;;3.72;;
20639;SDS011;10479;53.524;9.846;2023-05-02T06:08:56;13.35;;;3.70;;
20639;SDS011;10479;53.524;9.846;2023-05-02T06:11:21;16.85;;;2.60;;
20639;SDS011;10479;53.524;9.846;2023-05-02T06:13:48;15.20;;;2.85;;
20639;SDS011;10479;53.524;9.846;2023-05-02T06:16:15;13.98;;;3.00;;
20639;SDS011;10479;53.524;9.846;2023-05-02T06:18:42;10.32;;;2.70;;
20639;SDS011;10479;53.524;9.846;2023-05-02T06:21:08;22.75;;;3.80;;
20639;SDS011;10479;53.524;9.846;2023-05-02T06:23:34;14.85;;;2.70;;
20639;SDS011;10479;53.524;9.846;2023-05-02T06:26:09;16.75;;;2.90;;
20639;SDS011;10479;53.524;9.846;2023-05-02T06:28:35;13.82;;;2.67;;
20639;SDS011;10479;53.524;9.846;2023-05-02T06:31:01;16.15;;;2.67;;
20639;SDS011;10479;53.524;9.846;2023-05-02T06:33:28;9.63;;;3.13;;
20639;SDS011;10479;53.524;9.846;2023-05-02T06:35:54;12.88;;;3.03;;
20639;SDS011;10479;53.524;9.846;2023-05-02T06:38:28;13.82;;;3.08;;
20639;SDS011;10479;53.524;9.846;2023-05-02T06:40:53;18.20;;;3.35;;
20639;SDS011;10479;53.524;9.846;2023-05-02T06:43:19;16.77;;;3.42;;
20639;SDS011;10479;53.524;9.846;2023-05-02T06:46:34;16.35;;;2.60;;
20639;SDS011;10479;53.524;9.846;2023-05-02T06:48:59;13.40;;;3.30;;
20639;SDS011;10479;53.524;9.846;2023-05-02T06:51:25;12.65;;;2.47;;
20639;SDS011;10479;53.524;9.846;2023-05-02T06:53:51;13.40;;;2.92;;
20639;SDS011;10479;53.524;9.846;2023-05-02T06:56:17;10.05;;;2.92;;
20639;SDS011;10479;53.524;9.846;2023-05-02T06:58:43;14.10;;;2.40;;
20639;SDS011;10479;53.524;9.846;2023-05-02T07:01:13;8.70;;;2.25;;
20639;SDS011;10479;53.524;9.846;2023-05-02T07:03:39;10.82;;;2.00;;
20639;SDS011;10479;53.524;9.846;2023-05-02T07:06:04;9.18;;;2.10;;
20639;SDS011;10479;53.524;9.846;2023-05-02T07:08:30;13.82;;;2.20;;
20639;SDS011;10479;53.524;9.846;2023-05-02T07:10:55;5.80;;;2.05;;
20639;SDS011;10479;53.524;9.846;2023-05-02T07:13:21;8.60;;;2.45;;
20639;SDS011;10479;53.524;9.846;2023-05-02T07:15:46;9.38;;;1.92;;
20639;SDS011;10479;53.524;9.846;2023-05-02T07:18:11;8.50;;;2.10;;
20639;SDS011;10479;53.524;9.846;2023-05-02T07:20:37;5.03;;;1.33;;
20639;SDS011;10479;53.524;9.846;2023-05-02T07:23:05;8.00;;;1.88;;
20639;SDS011;10479;53.524;9.846;2023-05-02T07:25:31;7.97;;;1.67;;
20639;SDS011;10479;53.524;9.846;2023-05-02T07:27:56;12.25;;;1.63;;
20639;SDS011;10479;53.524;9.846;2023-05-02T07:30:22;11.10;;;1.52;;
20639;SDS011;10479;53.524;9.846;2023-05-02T07:32:47;8.75;;;1.60;;
20639;SDS011;10479;53.524;9.846;2023-05-02T07:35:13;7.78;;;1.80;;
20639;SDS011;10479;53.524;9.846;2023-05-02T07:37:38;7.53;;;1.60;;
20639;SDS011;10479;53.524;9.846;2023-05-02T07:40:04;9.60;;;1.70;;
20639;SDS011;10479;53.524;9.846;2023-05-02T07:42:31;9.68;;;1.90;;
20639;SDS011;10479;53.524;9.846;2023-05-02T07:44:57;6.32;;;1.60;;
20639;SDS011;10479;53.524;9.846;2023-05-02T07:47:23;7.88;;;1.50;;
20639;SDS011;10479;53.524;9.846;2023-05-02T07:49:52;10.15;;;1.90;;
20639;SDS011;10479;53.524;9.846;2023-05-02T07:52:18;13.70;;;1.88;;
20639;SDS011;10479;53.524;9.846;2023-05-02T07:54:44;8.45;;;1.80;;
20639;SDS011;10479;53.524;9.846;2023-05-02T07:57:10;14.65;;;2.00;;
20639;SDS011;10479;53.524;9.846;2023-05-02T07:59:37;13.40;;;2.90;;
20639;SDS011;10479;53.524;9.846;2023-05-02T08:02:03;8.30;;;2.00;;
20639;SDS011;10479;53.524;9.846;2023-05-02T08:04:28;9.95;;;1.80;;
20639;SDS011;10479;53.524;9.846;2023-05-02T08:06:54;9.05;;;2.33;;
20639;SDS011;10479;53.524;9.846;2023-05-02T08:09:20;12.25;;;2.60;;
20639;SDS011;10479;53.524;9.846;2023-05-02T08:11:45;10.52;;;2.30;;
20639;SDS011;10479;53.524;9.846;2023-05-02T08:14:11;15.60;;;3.53;;
20639;SDS011;10479;53.524;9.846;2023-05-02T08:16:37;10.15;;;2.40;;
20639;SDS011;10479;53.524;9.846;2023-05-02T08:19:02;12.25;;;2.63;;
20639;SDS011;10479;53.524;9.846;2023-05-02T08:21:28;11.35;;;2.13;;
20639;SDS011;10479;53.524;9.846;2023-05-02T08:23:58;11.77;;;2.22;;
20639;SDS011;10479;53.524;9.846;2023-05-02T08:26:24;8.48;;;1.35;;
20639;SDS011;10479;53.524;9.846;2023-05-02T08:28:53;8.57;;;1.80;;
20639;SDS011;10479;53.524;9.846;2023-05-02T08:31:19;8.70;;;1.35;;
20639;SDS011;10479;53.524;9.846;2023-05-02T08:33:44;6.35;;;1.42;;
20639;SDS011;10479;53.524;9.846;2023-05-02T08:36:14;8.65;;;1.50;;
20639;SDS011;10479;53.524;9.846;2023-05-02T08:38:41;8.35;;;1.60;;
20639;SDS011;10479;53.524;9.846;2023-05-02T08:41:10;7.28;;;1.75;;
20639;SDS011;10479;53.524;9.846;2023-05-02T08:43:39;5.70;;;1.27;;
20639;SDS011;10479;53.524;9.846;2023-05-02T08:46:05;11.25;;;1.33;;
20639;SDS011;10479;53.524;9.846;2023-05-02T08:48:34;6.10;;;2.05;;
20639;SDS011;10479;53.524;9.846;2023-05-02T08:51:01;7.32;;;1.35;;
20639;SDS011;10479;53.524;9.846;2023-05-02T08:53:31;5.75;;;1.27;;
20639;SDS011;10479;53.524;9.846;2023-05-02T08:55:58;8.82;;;1.52;;
20639;SDS011;10479;53.524;9.846;2023-05-02T08:58:24;7.70;;;1.60;;
20639;SDS011;10479;53.524;9.846;2023-05-02T09:00:49;8.38;;;1.50;;
20639;SDS011;10479;53.524;9.846;2023-05-02T09:06:04;4.63;;;1.30;;
20639;SDS011;10479;53.524;9.846;2023-05-02T09:08:31;13.77;;;1.42;;
20639;SDS011;10479;53.524;9.846;2023-05-02T09:10:56;9.90;;;1.27;;
20639;SDS011;10479;53.524;9.846;2023-05-02T09:13:41;7.88;;;1.45;;
20639;SDS011;10479;53.524;9.846;2023-05-02T09:16:12;6.47;;;1.80;;
20639;SDS011;10479;53.524;9.846;2023-05-02T09:21:12;7.18;;;1.48;;
20639;SDS011;10479;53.524;9.846;2023-05-02T09:23:49;4.97;;;1.38;;
20639;SDS011;10479;53.524;9.846;2023-05-02T09:26:19;8.00;;;1.45;;
20639;SDS011;10479;53.524;9.846;2023-05-02T09:28:58;9.35;;;1.75;;
20639;SDS011;10479;53.524;9.846;2023-05-02T09:31:29;4.90;;;1.50;;
20639;SDS011;10479;53.524;9.846;2023-05-02T09:34:06;7.78;;;1.45;;
20639;SDS011;10479;53.524;9.846;2023-05-02T09:36:38;8.75;;;1.48;;
20639;SDS011;10479;53.524;9.846;2023-05-02T09:39:11;5.60;;;1.17;;
20639;SDS011;10479;53.524;9.846;2023-05-02T09:41:41;8.23;;;1.52;;
20639;SDS011;10479;53.524;9.846;2023-05-02T09:44:11;7.80;;;1.10;;
20639;SDS011;10479;53.524;9.846;2023-05-02T09:46:45;6.03;;;1.13;;
20639;SDS011;10479;53.524;9.846;2023-05-02T09:49:11;7.95;;;1.50;;
20639;SDS011;10479;53.524;9.846;2023-05-02T09:51:41;7.45;;;1.60;;
20639;SDS011;10479;53.524;9.846;2023-05-02T09:54:08;10.00;;;1.65;;
20639;SDS011;10479;53.524;9.846;2023-05-02T09:59:27;9.55;;;1.70;;
20639;SDS011;10479;53.524;9.846;2023-05-02T10:01:59;6.32;;;1.52;;
20639;SDS011;10479;53.524;9.846;2023-05-02T10:04:26;8.68;;;1.48;;
20639;SDS011;10479;53.524;9.846;2023-05-02T10:06:52;10.65;;;1.80;;
20639;SDS011;10479;53.524;9.846;2023-05-02T10:09:18;8.25;;;1.60;;
20639;SDS011;10479;53.524;9.846;2023-05-02T10:11:45;7.40;;;1.42;;
20639;SDS011;10479;53.524;9.846;2023-05-02T10:14:11;6.93;;;1.20;;
20639;SDS011;10479;53.524;9.846;2023-05-02T10:16:37;5.55;;;1.23;;
20639;SDS011;10479;53.524;9.846;2023-05-02T10:19:08;6.82;;;1.10;;
20639;SDS011;10479;53.524;9.846;2023-05-02T10:21:35;4.80;;;1.40;;
20639;SDS011;10479;53.524;9.846;2023-05-02T10:24:01;6.90;;;1.50;;
20639;SDS011;10479;53.524;9.846;2023-05-02T10:26:29;6.53;;;1.35;;
20639;SDS011;10479;53.524;9.846;2023-05-02T10:28:56;9.32;;;1.83;;
20639;SDS011;10479;53.524;9.846;2023-05-02T10:31:21;10.90;;;1.58;;
20639;SDS011;10479;53.524;9.846;2023-05-02T10:33:50;7.68;;;1.83;;
20639;SDS011;10479;53.524;9.846;2023-05-02T10:36:19;11.18;;;1.95;;
20639;SDS011;10479;53.524;9.846;2023-05-02T10:38:45;10.55;;;1.90;;
20639;SDS011;10479;53.524;9.846;2023-05-02T10:41:20;13.40;;;1.58;;
20639;SDS011;10479;53.524;9.846;2023-05-02T10:43:53;7.07;;;1.38;;
20639;SDS011;10479;53.524;9.846;2023-05-02T10:46:46;6.38;;;1.20;;
20639;SDS011;10479;53.524;9.846;2023-05-02T10:49:12;8.43;;;1.50;;
20639;SDS011;10479;53.524;9.846;2023-05-02T10:51:53;7.78;;;1.55;;
20639;SDS011;10479;53.524;9.846;2023-05-02T10:59:42;7.55;;;1.20;;
20639;SDS011;10479;53.524;9.846;2023-05-02T11:05:00;8.35;;;2.00;;
20639;SDS011;10479;53.524;9.846;2023-05-02T11:07:29;10.15;;;1.63;;
20639;SDS011;10479;53.524;9.846;2023-05-02T11:12:50;4.57;;;1.17;;
20639;SDS011;10479;53.524;9.846;2023-05-02T11:18:14;6.10;;;1.40;;
20639;SDS011;10479;53.524;9.846;2023-05-02T11:20:43;7.72;;;1.60;;
20639;SDS011;10479;53.524;9.846;2023-05-02T11:33:57;5.78;;;1.50;;
20639;SDS011;10479;53.524;9.846;2023-05-02T11:36:30;8.00;;;1.63;;
20639;SDS011;10479;53.524;9.846;2023-05-02T11:38:59;6.85;;;1.27;;
20639;SDS011;10479;53.524;9.846;2023-05-02T11:41:38;7.10;;;1.40;;
20639;SDS011;10479;53.524;9.846;2023-05-02T11:44:30;9.68;;;1.35;;
20639;SDS011;10479;53.524;9.846;2023-05-02T11:46:55;9.77;;;1.50;;
20639;SDS011;10479;53.524;9.846;2023-05-02T11:49:21;6.03;;;1.35;;
20639;SDS011;10479;53.524;9.846;2023-05-02T11:51:46;8.98;;;1.20;;
20639;SDS011;10479;53.524;9.846;2023-05-02T11:54:17;6.43;;;1.30;;
20639;SDS011;10479;53.524;9.846;2023-05-02T11:59:10;6.35;;;1.30;;
20639;SDS011;10479;53.524;9.846;2023-05-02T12:01:36;9.40;;;1.70;;
20639;SDS011;10479;53.524;9.846;2023-05-02T12:04:05;8.45;;;1.40;;
20639;SDS011;10479;53.524;9.846;2023-05-02T12:06:31;6.60;;;1.52;;
20639;SDS011;10479;53.524;9.846;2023-05-02T12:09:07;10.40;;;1.42;;
20639;SDS011;10479;53.524;9.846;2023-05-02T12:11:32;5.70;;;1.30;;
20639;SDS011;10479;53.524;9.846;2023-05-02T12:13:59;6.93;;;1.40;;
20639;SDS011;10479;53.524;9.846;2023-05-02T12:17:06;9.68;;;1.70;;
20639;SDS011;10479;53.524;9.846;2023-05-02T12:19:32;7.80;;;1.45;;
20639;SDS011;10479;53.524;9.846;2023-05-02T12:21:57;4.68;;;1.27;;
20639;SDS011;10479;53.524;9.846;2023-05-02T12:24:23;4.60;;;1.05;;
20639;SDS011;10479;53.524;9.846;2023-05-02T12:26:48;5.88;;;1.23;;
20639;SDS011;10479;53.524;9.846;2023-05-02T12:29:15;8.27;;;1.55;;
20639;SDS011;10479;53.524;9.846;2023-05-02T12:31:50;5.97;;;1.70;;
20639;SDS011;10479;53.524;9.846;2023-05-02T12:34:30;9.55;;;1.45;;
20639;SDS011;10479;53.524;9.846;2023-05-02T12:37:47;6.53;;;1.00;;
20639;SDS011;10479;53.524;9.846;2023-05-02T12:40:16;5.00;;;1.13;;
20639;SDS011;10479;53.524;9.846;2023-05-02T12:42:41;6.43;;;1.42;;
20639;SDS011;10479;53.524;9.846;2023-05-02T12:48:01;6.43;;;1.30;;
20639;SDS011;10479;53.524;9.846;2023-05-02T12:50:47;5.00;;;1.35;;
20639;SDS011;10479;53.524;9.846;2023-05-02T12:53:13;4.18;;;0.82;;
20639;SDS011;10479;53.524;9.846;2023-05-02T12:55:41;5.20;;;1.00;;
20639;SDS011;10479;53.524;9.846;2023-05-02T12:58:07;5.00;;;1.05;;
20639;SDS011;10479;53.524;9.846;2023-05-02T13:00:38;4.57;;;0.98;;
20639;SDS011;10479;53.524;9.846;2023-05-02T13:03:05;5.93;;;1.40;;
20639;SDS011;10479;53.524;9.846;2023-05-02T13:05:31;5.45;;;1.20;;
20639;SDS011;10479;53.524;9.846;2023-05-02T13:07:57;7.78;;;1.48;;
20639;SDS011;10479;53.524;9.846;2023-05-02T13:10:23;9.70;;;1.67;;
20639;SDS011;10479;53.524;9.846;2023-05-02T13:12:50;5.57;;;1.30;;
20639;SDS011;10479;53.524;9.846;2023-05-02T13:15:16;4.22;;;1.17;;
20639;SDS011;10479;53.524;9.846;2023-05-02T13:17:42;7.10;;;1.20;;
20639;SDS011;10479;53.524;9.846;2023-05-02T13:20:08;4.43;;;1.10;;
20639;SDS011;10479;53.524;9.846;2023-05-02T13:22:34;8.82;;;1.40;;
20639;SDS011;10479;53.524;9.846;2023-05-02T13:25:03;4.82;;;1.40;;
20639;SDS011;10479;53.524;9.846;2023-05-02T13:27:30;6.78;;;1.45;;
20639;SDS011;10479;53.524;9.846;2023-05-02T13:29:58;6.40;;;1.23;;
20639;SDS011;10479;53.524;9.846;2023-05-02T13:32:24;7.70;;;1.55;;
20639;SDS011;10479;53.524;9.846;2023-05-02T13:34:49;6.30;;;1.55;;
20639;SDS011;10479;53.524;9.846;2023-05-02T13:37:15;4.65;;;1.05;;
20639;SDS011;10479;53.524;9.846;2023-05-02T13:39:40;3.25;;;1.10;;
20639;SDS011;10479;53.524;9.846;2023-05-02T13:42:06;5.30;;;1.45;;
20639;SDS011;10479;53.524;9.846;2023-05-02T13:44:32;2.05;;;1.08;;
20639;SDS011;10479;53.524;9.846;2023-05-02T13:46:57;5.60;;;1.35;;
20639;SDS011;10479;53.524;9.846;2023-05-02T13:49:23;5.60;;;1.50;;
20639;SDS011;10479;53.524;9.846;2023-05-02T13:51:49;3.15;;;1.00;;
20639;SDS011;10479;53.524;9.846;2023-05-02T13:54:15;4.72;;;1.30;;
20639;SDS011;10479;53.524;9.846;2023-05-02T13:56:40;4.07;;;1.27;;
20639;SDS011;10479;53.524;9.846;2023-05-02T13:59:06;4.78;;;1.00;;
20639;SDS011;10479;53.524;9.846;2023-05-02T14:01:32;6.13;;;1.17;;
20639;SDS011;10479;53.524;9.846;2023-05-02T14:03:58;4.40;;;1.25;;
20639;SDS011;10479;53.524;9.846;2023-05-02T14:06:23;7.85;;;1.10;;
20639;SDS011;10479;53.524;9.846;2023-05-02T14:08:49;4.85;;;1.25;;
20639;SDS011;10479;53.524;9.846;2023-05-02T14:11:17;8.20;;;1.40;;
20639;SDS011;10479;53.524;9.846;2023-05-02T14:13:42;8.45;;;1.50;;
20639;SDS011;10479;53.524;9.846;2023-05-02T14:16:08;5.25;;;1.20;;
20639;SDS011;10479;53.524;9.846;2023-05-02T14:18:34;7.93;;;1.40;;
20639;SDS011;10479;53.524;9.846;2023-05-02T14:20:59;10.68;;;1.58;;
20639;SDS011;10479;53.524;9.846;2023-05-02T14:23:25;4.00;;;1.23;;
20639;SDS011;10479;53.524;9.846;2023-05-02T14:25:52;8.57;;;1.52;;
20639;SDS011;10479;53.524;9.846;2023-05-02T14:28:18;5.07;;;1.42;;
20639;SDS011;10479;53.524;9.846;2023-05-02T14:30:43;4.25;;;1.50;;
20639;SDS011;10479;53.524;9.846;2023-05-02T14:33:09;5.35;;;1.33;;
20639;SDS011;10479;53.524;9.846;2023-05-02T14:35:34;7.22;;;1.50;;
20639;SDS011;10479;53.524;9.846;2023-05-02T14:37:59;9.02;;;1.58;;
20639;SDS011;10479;53.524;9.846;2023-05-02T14:40:25;10.10;;;1.60;;
20639;SDS011;10479;53.524;9.846;2023-05-02T14:42:51;4.35;;;1.42;;
20639;SDS011;10479;53.524;9.846;2023-05-02T14:45:16;8.23;;;1.48;;
20639;SDS011;10479;53.524;9.846;2023-05-02T14:47:41;7.22;;;1.10;;
20639;SDS011;10479;53.524;9.846;2023-05-02T14:50:07;4.53;;;1.10;;
20639;SDS011;10479;53.524;9.846;2023-05-02T14:52:33;6.00;;;1.17;;
20639;SDS011;10479;53.524;9.846;2023-05-02T14:54:59;8.50;;;1.30;;
20639;SDS011;10479;53.524;9.846;2023-05-02T14:57:24;6.63;;;1.10;;
20639;SDS011;10479;53.524;9.846;2023-05-02T14:59:50;5.70;;;1.17;;
20639;SDS011;10479;53.524;9.846;2023-05-02T15:02:15;3.92;;;1.10;;
20639;SDS011;10479;53.524;9.846;2023-05-02T15:04:41;4.15;;;1.10;;
20639;SDS011;10479;53.524;9.846;2023-05-02T15:07:06;4.95;;;1.05;;
20639;SDS011;10479;53.524;9.846;2023-05-02T15:09:32;4.55;;;1.23;;
20639;SDS011;10479;53.524;9.846;2023-05-02T15:11:57;3.78;;;1.15;;
20639;SDS011;10479;53.524;9.846;2023-05-02T15:14:22;4.25;;;1.00;;
20639;SDS011;10479;53.524;9.846;2023-05-02T15:16:48;5.05;;;1.33;;
20639;SDS011;10479;53.524;9.846;2023-05-02T15:19:13;6.85;;;1.25;;
20639;SDS011;10479;53.524;9.846;2023-05-02T15:21:39;5.15;;;1.00;;
20639;SDS011;10479;53.524;9.846;2023-05-02T15:24:04;5.07;;;1.20;;
20639;SDS011;10479;53.524;9.846;2023-05-02T15:26:30;8.13;;;1.40;;
20639;SDS011;10479;53.524;9.846;2023-05-02T15:28:56;7.78;;;1.13;;
20639;SDS011;10479;53.524;9.846;2023-05-02T15:31:22;8.25;;;1.38;;
20639;SDS011;10479;53.524;9.846;2023-05-02T15:33:48;9.43;;;1.50;;
20639;SDS011;10479;53.524;9.846;2023-05-02T15:36:13;9.95;;;1.83;;
20639;SDS011;10479;53.524;9.846;2023-05-02T15:38:39;6.28;;;1.70;;
20639;SDS011;10479;53.524;9.846;2023-05-02T15:41:07;9.43;;;1.63;;
20639;SDS011;10479;53.524;9.846;2023-05-02T15:43:33;3.78;;;1.20;;